Lakin, West Virginia
Current Conditions -  °F | °C
As of 10:15 AM on Friday 31 Oct 2014 (Local Time) from K3I2 Reporting Station
Overcast Overcast  
Wind Chill: 45°   Ceiling: 3100
Heat Index: 45°   Visibility: 10mi
Dew Point: 39°   Wind: 0mph
Humidity: 81%   Direction: NA
Pressure: 30"   Gusts: NA
Location:  38.96°N, 82.08°W
Report Text: K3I2 311415Z AUTO 00000KT 10SM BKN031 OVC039 07/04 A3000 RMK AO2
Loading
Personal Weather Stations






























Interactive Weather Map
Tropical Storm Tracking
New forecast layout! Learn more

10-Day Weather Forecast

Advertisements
Track Severe Weather on mobile